CDT,Max TemperatureF,Mean TemperatureF,Min TemperatureF,Max Dew PointF,MeanDew PointF,Min DewpointF,Max Humidity, Mean Humidity, Min Humidity, Max Sea Level PressureIn, Mean Sea Level PressureIn, Min Sea Level PressureIn, Max VisibilityMiles, Mean VisibilityMiles, Min VisibilityMiles, Max Wind SpeedMPH, Mean Wind SpeedMPH, Max Gust SpeedMPH,PrecipitationIn, CloudCover, Events, WindDirDegrees
2013-6-1,67,60,52,50,47,45,77,65,52,30.07,29.90,29.76,10,10,10,23,14,31,0.00,6,,309
2013-6-2,71,59,46,46,43,40,93,63,33,30.16,30.08,29.99,10,10,10,15,7,20,0.00,1,,12
2013-6-3,77,64,50,57,51,45,89,66,43,30.00,29.89,29.75,10,10,10,26,16,33,0.00,0,,144
2013-6-4,82,72,61,65,62,58,90,72,54,29.96,29.85,29.72,10,10,10,25,8,32,T,4,Rain,95
2013-6-5,71,64,56,66,59,49,93,71,49,30.05,29.98,29.88,10,8,2,21,10,30,0.27,6,Rain-Thunderstorm,9
2013-6-6,77,64,50,53,49,45,93,65,36,30.03,30.00,29.95,10,10,10,15,7,21,0.00,1,,327
2013-6-7,78,64,50,54,50,47,83,61,38,30.04,29.97,29.86,10,10,10,13,5,16,0.00,1,,207
2013-6-8,80,70,60,62,58,52,93,73,52,29.86,29.75,29.67,10,8,1,29,13,37,0.59,4,Rain-Thunderstorm,201
2013-6-9,83,69,55,59,52,49,97,64,31,29.86,29.83,29.80,10,10,10,28,12,36,0.00,0,,301
2013-6-10,89,71,52,70,60,50,93,67,40,29.88,29.80,29.70,10,10,10,22,10,28,0.00,0,,131
2013-6-11,95,82,68,69,64,60,93,62,31,29.83,29.71,29.62,10,10,10,32,17,43,0.00,0,Thunderstorm,162
2013-6-12,95,80,65,66,61,54,63,47,30,30.02,29.77,29.59,10,10,10,30,15,39,0.00,0,,314
2013-6-13,82,69,56,60,55,51,80,61,42,30.08,30.02,29.94,10,10,10,20,9,28,0.00,0,,77
2013-6-14,97,81,65,70,62,58,87,58,28,29.95,29.84,29.73,10,10,10,29,14,37,0.00,0,,157
2013-6-15,84,77,69,69,64,56,97,72,47,29.93,29.85,29.79,10,10,10,22,9,26,0.09,3,Rain,170
2013-6-16,87,77,66,68,66,63,100,72,43,30.04,29.94,29.88,10,9,4,16,7,22,0.17,4,Rain-Thunderstorm,34
2013-6-17,88,78,67,68,62,52,93,63,32,30.03,29.95,29.87,10,10,7,23,7,30,T,2,Rain-Thunderstorm,49
2013-6-18,87,74,61,65,62,56,93,64,35,30.02,29.98,29.94,10,10,10,18,5,24,0.01,2,Rain-Thunderstorm,150
2013-6-19,87,74,61,66,62,59,93,67,40,29.97,29.92,29.85,10,10,9,24,12,29,0.00,1,,144
2013-6-20,93,81,69,69,67,62,90,67,44,29.89,29.81,29.73,10,10,10,28,17,36,0.00,1,,161
2013-6-21,96,86,75,69,66,60,74,52,30,29.82,29.78,29.74,10,10,10,31,20,44,0.00,0,,175
2013-6-22,94,85,76,69,65,61,74,54,33,29.92,29.79,29.69,10,10,9,36,19,45,T,1,Rain-Thunderstorm,163
2013-6-23,93,80,66,68,64,59,81,61,41,29.91,29.79,29.73,10,10,10,26,13,33,0.00,3,Thunderstorm,133
2013-6-24,88,80,71,70,66,61,84,64,44,29.89,29.77,29.67,10,10,2,26,16,36,0.08,1,Rain-Thunderstorm,172
2013-6-25,96,82,68,69,65,58,79,57,34,29.80,29.66,29.54,10,10,7,55,18,69,0.07,1,Rain-Thunderstorm,179
2013-6-26,100,84,68,65,62,57,78,52,26,29.85,29.80,29.70,10,10,9,14,6,16,0.00,0,,22
2013-6-27,93,81,68,75,69,64,90,71,52,29.99,29.89,29.84,10,10,8,18,8,24,T,1,Rain-Thunderstorm,97
2013-6-28,91,78,65,68,58,49,93,59,24,30.01,29.97,29.92,10,10,10,22,10,30,0.00,0,,327
2013-6-29,86,74,61,57,52,46,84,56,27,29.97,29.94,29.90,10,10,10,28,12,36,0.00,0,,332
2013-6-30,81,71,60,57,53,48,84,59,33,30.10,30.03,29.96,10,10,7,23,9,29,0.00,1,,2